Time;durP1;ratioP1;P1;durP2;ratioP2;P2;SDS_P1;SDS_P2;PMS_P1;PMS_P2;Temp;Humidity;BMP_temperature;BMP_pressure;BME280_temperature;BME280_humidity;BME280_pressure;Samples;Min_cycle;Max_cycle;Signal;HPM_P1;HPM_P2
2024/01/20 00:01:48;;;;;;;0.30;0.30;;;1.20;99.90;;;;;;5090772;28;20789;-80
2024/01/20 00:04:13;;;;;;;0.30;0.30;;;1.20;99.90;;;;;;5090127;28;20228;-85
2024/01/20 00:06:39;;;;;;;0.30;0.30;;;1.20;99.90;;;;;;5090335;28;20173;-86
2024/01/20 00:09:05;;;;;;;0.30;0.20;;;1.20;99.90;;;;;;5088046;28;20234;-80
2024/01/20 00:11:30;;;;;;;0.30;0.30;;;1.20;99.90;;;;;;5090303;28;20211;-86
2024/01/20 00:13:56;;;;;;;0.30;0.30;;;1.20;99.90;;;;;;5089484;28;20697;-81
2024/01/20 00:16:22;;;;;;;0.30;0.30;;;1.20;99.90;;;;;;5089021;28;20637;-79
2024/01/20 00:18:47;;;;;;;0.30;0.30;;;1.10;99.90;;;;;;5089590;28;20204;-85
2024/01/20 00:21:14;;;;;;;0.30;0.30;;;1.10;99.90;;;;;;5090021;28;20755;-79
2024/01/20 00:23:39;;;;;;;0.30;0.30;;;1.10;99.90;;;;;;5089172;28;20216;-85
2024/01/20 00:26:05;;;;;;;0.30;0.30;;;1.00;99.90;;;;;;5089714;28;20658;-80
2024/01/20 00:28:31;;;;;;;0.30;0.20;;;1.00;99.90;;;;;;5089347;28;20188;-85
2024/01/20 00:30:56;;;;;;;0.30;0.20;;;1.00;99.90;;;;;;5088394;28;20699;-80
2024/01/20 00:33:22;;;;;;;0.30;0.30;;;1.00;99.90;;;;;;5090010;28;20274;-86
2024/01/20 00:35:48;;;;;;;0.30;0.30;;;1.00;99.90;;;;;;5088417;28;20229;-85
2024/01/20 00:38:13;;;;;;;0.30;0.30;;;1.00;99.90;;;;;;5089371;28;20713;-85
2024/01/20 00:40:39;;;;;;;0.30;0.30;;;1.00;99.90;;;;;;5088663;28;20188;-84
2024/01/20 00:43:05;;;;;;;0.30;0.30;;;0.90;99.90;;;;;;5088127;28;20348;-80
2024/01/20 00:45:31;;;;;;;0.30;0.30;;;0.90;99.90;;;;;;5089831;28;20177;-83
2024/01/20 00:47:57;;;;;;;0.30;0.20;;;0.90;99.90;;;;;;5089668;28;20414;-85
2024/01/20 00:50:23;;;;;;;0.30;0.30;;;0.90;99.90;;;;;;5089484;28;20801;-84
2024/01/20 00:52:49;;;;;;;0.30;0.30;;;0.90;99.90;;;;;;5089570;28;20440;-80
2024/01/20 00:55:14;;;;;;;0.30;0.30;;;0.80;99.90;;;;;;5089067;28;20415;-80
2024/01/20 00:57:40;;;;;;;0.30;0.30;;;0.80;99.90;;;;;;5088281;28;20242;-85
2024/01/20 01:00:09;;;;;;;0.30;0.30;;;0.80;99.90;;;;;;5089257;28;20455;-85
2024/01/20 01:02:39;;;;;;;0.30;0.20;;;0.80;99.90;;;;;;5088098;28;20173;-85
2024/01/20 01:05:05;;;;;;;0.30;0.20;;;0.80;99.90;;;;;;5087749;28;20188;-80
2024/01/20 01:07:32;;;;;;;0.30;0.30;;;0.80;99.90;;;;;;5089806;28;20167;-81
2024/01/20 01:09:57;;;;;;;0.30;0.28;;;0.80;99.90;;;;;;5088861;28;20228;-80
2024/01/20 01:12:23;;;;;;;0.30;0.20;;;0.70;99.90;;;;;;5088094;28;20176;-86
2024/01/20 01:14:49;;;;;;;0.30;0.30;;;0.70;99.90;;;;;;5087807;28;20208;-84
2024/01/20 01:17:16;;;;;;;0.30;0.30;;;0.70;99.90;;;;;;5089733;28;20405;-80
2024/01/20 01:19:43;;;;;;;0.30;0.30;;;0.70;99.90;;;;;;5089060;28;20425;-86
2024/01/20 01:22:08;;;;;;;0.30;0.30;;;0.70;99.90;;;;;;5089345;28;20185;-86
2024/01/20 01:24:34;;;;;;;0.30;0.30;;;0.70;99.90;;;;;;5091935;28;20258;-80
2024/01/20 01:27:00;;;;;;;0.30;0.30;;;0.70;99.90;;;;;;5091526;28;20553;-85
2024/01/20 01:29:25;;;;;;;0.30;0.30;;;0.60;99.90;;;;;;5092827;28;20447;-80
2024/01/20 01:31:51;;;;;;;0.30;0.30;;;0.60;99.90;;;;;;5091441;28;20176;-85
2024/01/20 01:34:17;;;;;;;0.30;0.30;;;0.50;99.90;;;;;;5091320;28;20216;-78
2024/01/20 01:36:43;;;;;;;0.30;0.30;;;0.50;99.90;;;;;;5093420;28;20180;-78
2024/01/20 01:39:09;;;;;;;0.30;0.20;;;0.50;99.90;;;;;;5091396;28;20436;-84
2024/01/20 01:41:35;;;;;;;0.30;0.20;;;0.40;99.90;;;;;;5091952;28;20412;-79
2024/01/20 01:44:01;;;;;;;0.30;0.30;;;0.40;99.90;;;;;;5091235;28;20407;-84
2024/01/20 01:46:27;;;;;;;0.30;0.30;;;0.40;99.90;;;;;;5091960;28;20241;-81
2024/01/20 01:48:53;;;;;;;0.30;0.30;;;0.40;99.90;;;;;;5092183;28;20314;-86
2024/01/20 01:51:19;;;;;;;0.30;0.20;;;0.40;99.90;;;;;;5091667;28;20226;-80
2024/01/20 01:53:45;;;;;;;0.30;0.30;;;0.40;99.90;;;;;;5090890;28;20208;-85
2024/01/20 01:56:13;;;;;;;0.30;0.20;;;0.40;99.90;;;;;;5092680;28;20168;-79
2024/01/20 01:58:39;;;;;;;0.30;0.30;;;0.30;99.90;;;;;;5092883;28;20465;-80
2024/01/20 02:01:04;;;;;;;0.30;0.30;;;0.30;99.90;;;;;;5092624;28;20192;-80
2024/01/20 02:03:30;;;;;;;0.30;0.30;;;0.30;99.90;;;;;;5092983;28;20283;-79
2024/01/20 02:05:56;;;;;;;0.30;0.30;;;0.30;99.90;;;;;;5092699;28;20714;-85
2024/01/20 02:08:24;;;;;;;0.30;0.30;;;0.30;99.90;;;;;;5092475;28;20283;-80
2024/01/20 02:10:50;;;;;;;0.30;0.30;;;0.30;99.90;;;;;;5090654;28;20234;-80
2024/01/20 02:13:16;;;;;;;0.30;0.30;;;0.30;99.90;;;;;;5091066;28;20684;-85
2024/01/20 02:15:43;;;;;;;0.30;0.30;;;0.30;99.90;;;;;;5090924;28;20379;-85
2024/01/20 02:18:08;;;;;;;0.30;0.30;;;0.20;99.90;;;;;;5090856;28;20287;-80
2024/01/20 02:20:34;;;;;;;0.30;0.30;;;0.20;99.90;;;;;;5090799;28;20263;-79
2024/01/20 02:23:00;;;;;;;0.30;0.30;;;0.20;99.90;;;;;;5090477;28;20420;-79
2024/01/20 02:25:26;;;;;;;0.30;0.30;;;0.20;99.90;;;;;;5089685;28;20388;-79
2024/01/20 02:27:52;;;;;;;0.30;0.30;;;0.20;99.90;;;;;;5092024;28;20198;-85
2024/01/20 02:30:17;;;;;;;0.30;0.30;;;0.20;99.90;;;;;;5090142;28;20432;-81
2024/01/20 02:32:43;;;;;;;0.30;0.30;;;0.20;99.90;;;;;;5090166;28;20521;-79
2024/01/20 02:35:09;;;;;;;0.30;0.30;;;0.20;99.90;;;;;;5088878;28;20223;-79
2024/01/20 02:37:35;;;;;;;0.30;0.28;;;0.20;99.90;;;;;;5092246;28;20177;-85
2024/01/20 02:40:01;;;;;;;0.30;0.30;;;0.20;99.90;;;;;;5091355;28;20184;-80
2024/01/20 02:42:27;;;;;;;0.30;0.30;;;0.20;99.90;;;;;;5090703;28;20207;-79
2024/01/20 02:44:52;;;;;;;0.30;0.27;;;0.10;99.90;;;;;;5090427;28;20234;-79
2024/01/20 02:47:19;;;;;;;0.30;0.20;;;0.10;99.90;;;;;;5091915;28;20196;-85
2024/01/20 02:49:44;;;;;;;0.30;0.30;;;0.10;99.90;;;;;;5091364;28;20196;-80
2024/01/20 02:52:10;;;;;;;0.30;0.30;;;0.10;99.90;;;;;;5091673;28;20180;-79
2024/01/20 02:54:35;;;;;;;0.30;0.20;;;0.10;99.90;;;;;;5091102;28;20701;-80
2024/01/20 02:57:01;;;;;;;0.30;0.30;;;0.10;99.90;;;;;;5091633;28;20177;-85
2024/01/20 02:59:27;;;;;;;0.30;0.30;;;0.10;99.90;;;;;;5089776;28;20619;-85
2024/01/20 03:01:53;;;;;;;0.30;0.30;;;0.00;99.90;;;;;;5091753;28;20391;-79
2024/01/20 03:04:18;;;;;;;0.30;0.30;;;0.00;99.90;;;;;;5089760;28;20204;-80
2024/01/20 03:06:44;;;;;;;0.30;0.30;;;0.10;99.90;;;;;;5090199;28;20173;-86
2024/01/20 03:09:14;;;;;;;0.30;0.30;;;0.00;99.90;;;;;;5088639;28;20258;-86
2024/01/20 03:11:41;;;;;;;0.30;0.30;;;0.00;99.90;;;;;;5091365;28;20180;-80
2024/01/20 03:14:08;;;;;;;0.30;0.30;;;0.00;99.90;;;;;;5090501;28;20627;-80
2024/01/20 03:16:34;;;;;;;0.30;0.30;;;0.00;99.90;;;;;;5090047;28;20195;-85
2024/01/20 03:19:00;;;;;;;0.30;0.30;;;0.00;99.90;;;;;;5089200;28;20200;-86
2024/01/20 03:21:25;;;;;;;0.30;0.30;;;-0.10;99.90;;;;;;5089819;28;20631;-80
2024/01/20 03:23:53;;;;;;;0.30;0.20;;;-0.10;99.90;;;;;;5090489;28;20254;-84
2024/01/20 03:26:19;;;;;;;0.30;0.30;;;-0.10;99.90;;;;;;5089591;28;20169;-79
2024/01/20 03:28:45;;;;;;;0.30;0.30;;;-0.10;99.90;;;;;;5089187;28;20204;-79
2024/01/20 03:31:11;;;;;;;0.30;0.30;;;-0.10;99.90;;;;;;5091008;28;20445;-86
2024/01/20 03:33:36;;;;;;;0.30;0.30;;;-0.20;99.90;;;;;;5090251;28;20192;-86
2024/01/20 03:36:02;;;;;;;0.30;0.30;;;-0.20;99.90;;;;;;5088669;28;20336;-83
2024/01/20 03:38:28;;;;;;;0.30;0.30;;;-0.20;99.90;;;;;;5089225;28;20211;-79
2024/01/20 03:40:54;;;;;;;0.30;0.30;;;-0.20;99.90;;;;;;5090419;28;20891;-80
2024/01/20 03:43:19;;;;;;;0.30;0.30;;;-0.20;99.90;;;;;;5090792;28;20439;-80
2024/01/20 03:45:46;;;;;;;0.30;0.30;;;-0.30;99.90;;;;;;5090125;28;20183;-85
2024/01/20 03:48:12;;;;;;;0.30;0.30;;;-0.30;99.90;;;;;;5090648;28;20722;-86
2024/01/20 03:50:38;;;;;;;0.30;0.30;;;-0.30;99.90;;;;;;5089282;28;20176;-85
2024/01/20 03:53:04;;;;;;;0.30;0.30;;;-0.40;99.90;;;;;;5088441;28;21001;-85
2024/01/20 03:55:30;;;;;;;0.30;0.30;;;-0.40;99.90;;;;;;5089951;28;20236;-85
2024/01/20 03:57:55;;;;;;;0.30;0.30;;;-0.50;99.90;;;;;;5089045;28;20769;-80
2024/01/20 04:00:21;;;;;;;0.30;0.30;;;-0.50;99.90;;;;;;5088699;28;20210;-79
2024/01/20 04:02:47;;;;;;;0.30;0.30;;;-0.50;99.90;;;;;;5088777;28;20203;-85
2024/01/20 04:05:12;;;;;;;0.30;0.30;;;-0.50;99.90;;;;;;5089920;28;20177;-79
2024/01/20 04:07:38;;;;;;;0.30;0.30;;;-0.60;99.90;;;;;;5088807;28;20298;-80
2024/01/20 04:10:04;;;;;;;0.30;0.30;;;-0.60;99.90;;;;;;5089018;28;20667;-79
2024/01/20 04:12:30;;;;;;;0.30;0.30;;;-0.60;99.90;;;;;;5087591;28;20226;-79
2024/01/20 04:14:56;;;;;;;0.30;0.30;;;-0.70;99.90;;;;;;5088981;28;20219;-79
2024/01/20 04:17:22;;;;;;;0.30;0.30;;;-0.80;99.90;;;;;;5087927;28;20225;-79
2024/01/20 04:19:47;;;;;;;0.30;0.30;;;-0.80;99.90;;;;;;5089278;28;20391;-85
2024/01/20 04:22:13;;;;;;;0.30;0.30;;;-0.80;99.90;;;;;;5088120;28;20188;-79
2024/01/20 04:24:39;;;;;;;0.30;0.30;;;-0.80;99.90;;;;;;5088873;28;20200;-86
2024/01/20 04:27:05;;;;;;;0.30;0.30;;;-0.80;99.90;;;;;;5087150;28;20388;-86
2024/01/20 04:29:31;;;;;;;0.30;0.30;;;-0.80;99.90;;;;;;5087119;28;20688;-85
2024/01/20 04:31:57;;;;;;;0.30;0.30;;;-0.90;99.90;;;;;;5088720;28;20255;-80
2024/01/20 04:34:23;;;;;;;0.30;0.30;;;-0.90;99.90;;;;;;5088022;28;20296;-79
2024/01/20 04:36:48;;;;;;;0.30;0.30;;;-0.90;99.90;;;;;;5089257;28;20176;-79
2024/01/20 04:39:14;;;;;;;0.30;0.30;;;-0.90;99.90;;;;;;5087188;28;20673;-79
2024/01/20 04:41:40;;;;;;;0.30;0.30;;;-0.90;99.90;;;;;;5089133;28;20259;-80
2024/01/20 04:44:06;;;;;;;0.30;0.30;;;-0.90;99.90;;;;;;5087039;28;20433;-86
2024/01/20 04:46:31;;;;;;;0.30;0.30;;;-0.80;99.90;;;;;;5089173;28;20697;-79
2024/01/20 04:48:57;;;;;;;0.30;0.30;;;-0.80;99.90;;;;;;5086862;28;20619;-85
2024/01/20 04:51:23;;;;;;;0.30;0.30;;;-0.80;99.90;;;;;;5087549;28;20180;-80
2024/01/20 04:53:49;;;;;;;0.30;0.30;;;-0.80;99.90;;;;;;5088308;28;20438;-79
2024/01/20 04:56:19;;;;;;;0.30;0.27;;;-0.80;99.90;;;;;;5087640;28;20172;-85
2024/01/20 04:58:46;;;;;;;0.30;0.30;;;-0.80;99.90;;;;;;5089082;28;20235;-85
2024/01/20 05:01:11;;;;;;;0.30;0.30;;;-0.80;99.90;;;;;;5093032;28;20179;-80
2024/01/20 05:03:37;;;;;;;0.30;0.30;;;-0.80;99.90;;;;;;5090517;28;20204;-86
2024/01/20 05:06:03;;;;;;;0.30;0.30;;;-0.90;99.90;;;;;;5092111;28;20898;-85
2024/01/20 05:08:28;;;;;;;0.30;0.30;;;-0.80;99.90;;;;;;5091013;28;20594;-79
2024/01/20 05:10:54;;;;;;;0.30;0.30;;;-0.80;99.90;;;;;;5053030;28;1141002;-86
2024/01/20 05:13:20;;;;;;;0.30;0.30;;;-0.80;99.90;;;;;;5092311;28;20211;-79
2024/01/20 05:15:45;;;;;;;0.30;0.30;;;-0.80;99.90;;;;;;5092097;28;20456;-85
2024/01/20 05:18:11;;;;;;;0.30;0.30;;;-0.80;99.90;;;;;;5092024;28;20200;-81
2024/01/20 05:20:37;;;;;;;0.30;0.30;;;-0.80;99.90;;;;;;5093324;28;20383;-83
2024/01/20 05:23:03;;;;;;;0.30;0.30;;;-0.90;99.90;;;;;;5091626;28;20196;-84
2024/01/20 05:25:29;;;;;;;0.30;0.30;;;-0.90;99.90;;;;;;5091906;28;20196;-83
2024/01/20 05:27:55;;;;;;;0.30;0.30;;;-1.00;99.90;;;;;;5093358;28;20972;-84
2024/01/20 05:30:21;;;;;;;0.30;0.30;;;-1.00;99.90;;;;;;5090772;28;20177;-78
2024/01/20 05:32:47;;;;;;;0.30;0.30;;;-1.00;99.90;;;;;;5091251;28;20345;-83
2024/01/20 05:35:13;;;;;;;0.30;0.30;;;-1.00;99.90;;;;;;5092197;28;20208;-78
2024/01/20 05:37:39;;;;;;;0.30;0.30;;;-1.00;99.90;;;;;;5091795;28;20540;-84
2024/01/20 05:40:05;;;;;;;0.30;0.30;;;-1.00;99.90;;;;;;5092799;28;20176;-83
2024/01/20 05:42:31;;;;;;;0.30;0.30;;;-1.00;99.90;;;;;;5092912;28;20576;-77
2024/01/20 05:44:57;;;;;;;0.30;0.30;;;-1.00;99.90;;;;;;5092587;28;20243;-77
2024/01/20 05:47:22;;;;;;;0.30;0.30;;;-1.00;99.90;;;;;;5091410;28;20507;-77
2024/01/20 05:49:48;;;;;;;0.30;0.30;;;-1.00;99.90;;;;;;5092385;28;20187;-77
2024/01/20 05:52:14;;;;;;;0.30;0.30;;;-1.00;99.90;;;;;;5091384;28;20267;-83
2024/01/20 05:54:39;;;;;;;0.30;0.30;;;-1.10;99.90;;;;;;5092313;28;20216;-84
2024/01/20 05:57:05;;;;;;;0.30;0.30;;;-1.10;99.90;;;;;;5092726;28;20195;-84
2024/01/20 05:59:31;;;;;;;0.30;0.30;;;-1.10;99.90;;;;;;5092430;28;20654;-84
2024/01/20 06:01:57;;;;;;;0.30;0.30;;;-1.10;99.90;;;;;;5091339;28;20188;-79
2024/01/20 06:04:22;;;;;;;0.30;0.30;;;-1.10;99.90;;;;;;5090836;28;20274;-86
2024/01/20 06:06:49;;;;;;;0.30;0.30;;;-1.10;99.90;;;;;;5091096;28;20425;-85
2024/01/20 06:09:15;;;;;;;0.30;0.30;;;-1.10;99.90;;;;;;5091226;28;20693;-86
2024/01/20 06:11:41;;;;;;;0.30;0.30;;;-1.20;99.90;;;;;;5092737;28;20237;-79
2024/01/20 06:14:07;;;;;;;0.30;0.30;;;-1.20;99.90;;;;;;5091847;28;20228;-80
2024/01/20 06:16:38;;;;;;;0.30;0.30;;;-1.20;99.90;;;;;;5092650;28;20523;-79
2024/01/20 06:19:06;;;;;;;0.30;0.30;;;-1.20;99.90;;;;;;5091331;28;20692;-87
2024/01/20 06:21:32;;;;;;;0.30;0.30;;;-1.20;99.90;;;;;;5093046;28;20210;-79
2024/01/20 06:23:58;;;;;;;0.30;0.30;;;-1.20;99.90;;;;;;5091407;28;20657;-80
2024/01/20 06:26:23;;;;;;;0.30;0.30;;;-1.20;99.90;;;;;;5092322;28;20213;-85
2024/01/20 06:28:50;;;;;;;0.30;0.30;;;-1.20;99.90;;;;;;5090334;28;20207;-85
2024/01/20 06:31:26;;;;;;;0.30;0.30;;;-1.20;99.90;;;;;;5090593;28;20179;-79
2024/01/20 06:33:53;;;;;;;0.30;0.30;;;-1.30;99.90;;;;;;5090569;28;20204;-85
2024/01/20 06:36:21;;;;;;;0.30;0.30;;;-1.30;99.90;;;;;;5090059;28;20184;-79
2024/01/20 06:38:47;;;;;;;0.30;0.30;;;-1.30;99.90;;;;;;5089946;28;20888;-79
2024/01/20 06:41:14;;;;;;;0.30;0.20;;;-1.30;99.90;;;;;;5090686;28;20694;-85
2024/01/20 06:43:40;;;;;;;0.30;0.30;;;-1.20;99.90;;;;;;5090336;28;20214;-78
2024/01/20 06:46:07;;;;;;;0.30;0.30;;;-1.20;99.90;;;;;;5090584;28;20188;-79
2024/01/20 06:48:33;;;;;;;0.30;0.30;;;-1.20;99.90;;;;;;5090274;28;20203;-79
2024/01/20 06:51:00;;;;;;;0.30;0.30;;;-1.20;99.90;;;;;;5091777;28;20188;-79
2024/01/20 06:53:27;;;;;;;0.30;0.30;;;-1.20;99.90;;;;;;5090180;28;20201;-79
2024/01/20 06:55:53;;;;;;;0.30;0.30;;;-1.20;99.90;;;;;;5090401;28;20197;-86
2024/01/20 06:58:19;;;;;;;0.30;0.30;;;-1.10;99.90;;;;;;5090368;28;20199;-79
2024/01/20 07:00:44;;;;;;;0.30;0.30;;;-1.10;99.90;;;;;;5090383;28;20424;-85
2024/01/20 07:03:10;;;;;;;0.30;0.30;;;-1.00;99.90;;;;;;5091170;28;20189;-86
2024/01/20 07:05:36;;;;;;;0.30;0.30;;;-0.90;99.90;;;;;;5090046;28;20271;-80
2024/01/20 07:08:02;;;;;;;0.30;0.30;;;-0.80;99.90;;;;;;5091559;28;20611;-79
2024/01/20 07:10:28;;;;;;;0.30;0.30;;;-0.80;99.90;;;;;;5091027;28;20251;-86
2024/01/20 07:12:54;;;;;;;0.30;0.30;;;-0.60;99.90;;;;;;5089715;28;20232;-86
2024/01/20 07:15:19;;;;;;;0.30;0.30;;;-0.40;99.90;;;;;;5091188;28;20211;-83
2024/01/20 07:17:45;;;;;;;0.30;0.30;;;0.00;99.90;;;;;;5089792;28;20196;-79
2024/01/20 07:20:11;;;;;;;0.30;0.30;;;0.40;99.90;;;;;;5089127;28;20556;-79
2024/01/20 07:22:37;;;;;;;0.30;0.30;;;0.70;99.90;;;;;;5089898;28;20184;-85
2024/01/20 07:25:05;;;;;;;0.30;0.30;;;1.00;99.90;;;;;;5089527;28;20464;-84
2024/01/20 07:27:31;;;;;;;0.40;0.40;;;1.10;99.90;;;;;;5091007;28;20470;-86
2024/01/20 07:29:56;;;;;;;0.40;0.40;;;1.10;99.90;;;;;;5089246;28;20263;-84
2024/01/20 07:32:22;;;;;;;0.30;0.30;;;1.10;99.90;;;;;;5089139;28;20392;-78
2024/01/20 07:34:47;;;;;;;0.30;0.30;;;1.10;99.90;;;;;;5090104;28;20294;-85
2024/01/20 07:37:13;;;;;;;0.30;0.30;;;1.00;99.90;;;;;;5090222;28;20559;-84
2024/01/20 07:39:39;;;;;;;0.30;0.30;;;1.00;99.90;;;;;;5088767;28;20236;-85
2024/01/20 07:42:04;;;;;;;0.30;0.30;;;1.00;99.90;;;;;;5089458;28;20184;-85
2024/01/20 07:44:30;;;;;;;0.30;0.30;;;1.00;99.90;;;;;;5090472;28;20374;-79
2024/01/20 07:46:56;;;;;;;0.30;0.30;;;1.20;99.90;;;;;;5089629;28;20469;-86
2024/01/20 07:49:22;;;;;;;0.30;0.30;;;1.50;99.90;;;;;;5090081;28;20192;-86
2024/01/20 07:51:48;;;;;;;0.57;0.57;;;1.90;99.90;;;;;;5090647;28;20460;-79
2024/01/20 07:54:16;;;;;;;0.30;0.30;;;2.30;99.90;;;;;;5088581;28;20984;-86
2024/01/20 07:56:42;;;;;;;0.30;0.30;;;2.70;99.90;;;;;;5089320;28;20180;-86
2024/01/20 07:59:07;;;;;;;0.30;0.30;;;3.00;99.90;;;;;;5089633;28;20723;-78
2024/01/20 08:01:33;;;;;;;0.30;0.30;;;3.50;99.90;;;;;;5090724;28;20172;-84
2024/01/20 08:03:59;;;;;;;0.30;0.30;;;4.10;99.90;;;;;;5089572;28;20708;-87
2024/01/20 08:06:27;;;;;;;0.30;0.30;;;4.60;99.90;;;;;;5090605;28;20172;-84
2024/01/20 08:08:52;;;;;;;2.03;1.88;;;5.10;99.90;;;;;;5089496;28;20512;-78
2024/01/20 08:11:18;;;;;;;0.30;0.30;;;5.50;99.90;;;;;;5090216;28;20384;-78
2024/01/20 08:13:43;;;;;;;0.30;0.30;;;6.10;99.90;;;;;;5088497;28;20308;-78
2024/01/20 08:16:09;;;;;;;0.40;0.30;;;6.90;99.90;;;;;;5090276;28;20537;-85
2024/01/20 08:18:35;;;;;;;0.40;0.30;;;7.60;99.90;;;;;;5090016;28;20230;-84
2024/01/20 08:21:07;;;;;;;0.40;0.30;;;8.40;99.90;;;;;;5088562;28;20275;-84
2024/01/20 08:23:34;;;;;;;0.30;0.20;;;9.20;99.90;;;;;;5090040;28;20196;-78
2024/01/20 08:26:00;;;;;;;0.40;0.30;;;9.90;99.90;;;;;;5088656;28;20176;-84
2024/01/20 08:28:25;;;;;;;0.30;0.30;;;10.60;99.90;;;;;;5090119;28;20199;-78
2024/01/20 08:30:51;;;;;;;0.70;0.70;;;11.10;99.90;;;;;;5089957;28;20434;-80
2024/01/20 08:33:17;;;;;;;0.30;0.30;;;11.70;99.90;;;;;;5088039;28;20657;-79
2024/01/20 08:35:43;;;;;;;0.30;0.30;;;12.30;99.00;;;;;;5087821;28;20310;-84
2024/01/20 08:38:09;;;;;;;1.37;1.37;;;12.80;98.80;;;;;;5089499;28;20557;-78
2024/01/20 08:40:34;;;;;;;1.90;1.80;;;13.30;97.30;;;;;;5087416;28;20314;-81
2024/01/20 08:43:00;;;;;;;0.40;0.30;;;13.80;95.40;;;;;;5089662;28;20203;-84
2024/01/20 08:45:26;;;;;;;1.90;1.80;;;14.20;95.00;;;;;;5089528;28;20172;-82
2024/01/20 08:47:51;;;;;;;1.80;1.70;;;14.60;93.10;;;;;;5088135;28;20196;-79
2024/01/20 08:50:17;;;;;;;0.70;0.70;;;14.90;92.60;;;;;;5090090;28;20173;-79
2024/01/20 08:52:42;;;;;;;0.40;0.30;;;15.20;91.60;;;;;;5089470;28;20201;-84
2024/01/20 08:55:08;;;;;;;0.40;0.30;;;15.40;90.90;;;;;;5089557;28;20370;-79
2024/01/20 08:57:35;;;;;;;0.93;0.93;;;15.70;90.60;;;;;;5088401;28;20252;-79
2024/01/20 09:00:02;;;;;;;8.47;7.73;;;16.00;88.90;;;;;;5089377;28;20263;-79
2024/01/20 09:02:28;;;;;;;1.27;1.07;;;16.20;87.80;;;;;;5089546;28;20462;-79
2024/01/20 09:04:53;;;;;;;0.40;0.40;;;16.40;85.30;;;;;;5088010;28;20812;-84
2024/01/20 09:07:20;;;;;;;0.30;0.30;;;16.70;84.40;;;;;;5089787;28;20690;-84
2024/01/20 09:09:47;;;;;;;0.40;0.30;;;16.90;83.30;;;;;;5087920;28;20260;-85
2024/01/20 09:12:13;;;;;;;0.40;0.30;;;17.20;82.90;;;;;;5088311;28;20474;-80
2024/01/20 09:14:39;;;;;;;0.40;0.30;;;17.50;82.20;;;;;;5087731;28;20636;-79
2024/01/20 09:17:04;;;;;;;0.40;0.30;;;17.80;81.90;;;;;;5088127;28;20508;-84
2024/01/20 09:19:30;;;;;;;0.30;0.20;;;18.00;80.40;;;;;;5087838;28;20282;-85
2024/01/20 09:21:56;;;;;;;3.33;3.13;;;18.20;80.00;;;;;;5089100;28;20256;-79
2024/01/20 09:24:21;;;;;;;0.60;0.57;;;18.40;78.20;;;;;;5085891;28;20916;-79
2024/01/20 09:26:47;;;;;;;0.70;0.70;;;18.40;77.90;;;;;;5086585;28;20223;-81
2024/01/20 09:29:13;;;;;;;0.60;0.60;;;18.40;77.50;;;;;;5087242;28;20255;-79
2024/01/20 09:31:39;;;;;;;0.40;0.40;;;18.40;75.80;;;;;;5087581;28;20172;-85
2024/01/20 09:34:04;;;;;;;0.40;0.30;;;18.20;77.60;;;;;;5086654;28;20708;-79
2024/01/20 09:36:30;;;;;;;0.37;0.30;;;18.30;76.90;;;;;;5087598;28;20178;-79
2024/01/20 09:38:56;;;;;;;0.60;0.50;;;18.30;77.50;;;;;;5087500;28;20874;-83
2024/01/20 09:41:22;;;;;;;1.47;1.37;;;18.30;76.40;;;;;;5086885;28;20174;-79
2024/01/20 09:43:49;;;;;;;0.40;0.30;;;18.20;75.80;;;;;;5089630;28;20204;-79
2024/01/20 09:46:15;;;;;;;0.40;0.30;;;18.00;75.80;;;;;;5091683;28;20405;-85
2024/01/20 09:48:43;;;;;;;0.40;0.30;;;17.70;77.50;;;;;;5091463;28;20873;-85
2024/01/20 09:51:09;;;;;;;0.80;0.70;;;17.40;77.00;;;;;;5092792;28;20413;-85
2024/01/20 09:53:35;;;;;;;0.40;0.27;;;17.10;77.70;;;;;;5091200;28;20531;-79
2024/01/20 09:56:02;;;;;;;0.40;0.30;;;17.10;78.10;;;;;;5092872;28;20483;-85
2024/01/20 09:58:29;;;;;;;0.40;0.20;;;17.10;77.80;;;;;;5092623;28;20442;-79
2024/01/20 10:00:55;;;;;;;0.50;0.50;;;17.10;77.10;;;;;;5090157;28;20426;-84
2024/01/20 10:03:24;;;;;;;0.70;0.70;;;17.00;78.40;;;;;;5092851;28;20430;-84
2024/01/20 10:05:52;;;;;;;0.40;0.30;;;16.80;77.60;;;;;;5092521;28;20417;-84
2024/01/20 10:08:18;;;;;;;0.37;0.30;;;16.40;78.90;;;;;;5091460;28;20467;-80
2024/01/20 10:10:43;;;;;;;0.40;0.30;;;16.10;79.10;;;;;;5092439;28;20465;-79
2024/01/20 10:13:09;;;;;;;8.63;5.93;;;16.00;80.00;;;;;;5089564;28;20453;-79
2024/01/20 10:15:35;;;;;;;0.93;0.93;;;15.80;80.40;;;;;;5090979;28;20313;-81
2024/01/20 10:18:10;;;;;;;0.40;0.30;;;15.50;80.80;;;;;;5089710;28;20230;-84
2024/01/20 10:20:36;;;;;;;0.40;0.40;;;15.20;80.70;;;;;;5091833;28;20448;-78
2024/01/20 10:23:04;;;;;;;0.30;0.20;;;14.70;81.50;;;;;;5091597;28;20824;-81
2024/01/20 10:25:30;;;;;;;1.00;0.93;;;14.30;81.90;;;;;;5090295;28;20417;-80
2024/01/20 10:27:55;;;;;;;2.30;2.20;;;13.80;84.10;;;;;;5091881;28;20825;-81
2024/01/20 10:30:22;;;;;;;0.30;0.20;;;13.40;84.30;;;;;;5091023;28;20180;-81
2024/01/20 10:32:48;;;;;;;0.30;0.20;;;13.00;86.50;;;;;;5088595;28;20233;-78
2024/01/20 10:35:14;;;;;;;0.30;0.20;;;12.60;85.80;;;;;;5089664;28;20522;-85
2024/01/20 10:37:46;;;;;;;0.40;0.30;;;12.20;86.50;;;;;;5090040;28;20839;-85
2024/01/20 10:40:15;;;;;;;0.30;0.20;;;11.90;88.60;;;;;;5088603;28;20403;-78
2024/01/20 10:42:45;;;;;;;0.30;0.20;;;11.60;89.00;;;;;;5087738;28;20868;-78
2024/01/20 10:45:17;;;;;;;0.50;0.50;;;11.40;89.00;;;;;;5088688;28;20512;-84
2024/01/20 10:48:00;;;;;;;0.30;0.20;;;11.20;88.90;;;;;;5091569;28;21025;-84
2024/01/20 10:50:26;;;;;;;0.30;0.20;;;11.10;89.00;;;;;;5091733;28;20393;-84
2024/01/20 10:52:52;;;;;;;0.30;0.20;;;10.90;89.90;;;;;;5090199;28;20211;-78
2024/01/20 10:55:19;;;;;;;0.40;0.20;;;10.80;89.10;;;;;;5090309;28;20438;-83
2024/01/20 10:57:46;;;;;;;0.38;0.20;;;10.70;89.10;;;;;;5091658;28;20805;-78
2024/01/20 11:00:13;;;;;;;0.30;0.20;;;10.50;88.60;;;;;;5091054;28;20642;-78
2024/01/20 11:02:40;;;;;;;0.30;0.20;;;10.30;89.30;;;;;;5091383;28;20687;-84
2024/01/20 11:05:26;;;;;;;0.30;0.20;;;10.20;89.60;;;;;;5089791;28;20310;-78
2024/01/20 11:08:06;;;;;;;0.40;0.30;;;10.00;88.30;;;;;;5090025;28;20197;-77
2024/01/20 11:10:47;;;;;;;0.30;0.20;;;9.70;89.00;;;;;;5089935;28;20240;-78
2024/01/20 11:13:15;;;;;;;0.40;0.30;;;9.50;90.90;;;;;;5091456;28;20350;-84
2024/01/20 11:15:41;;;;;;;0.30;0.20;;;9.30;90.00;;;;;;5091208;28;20205;-84
2024/01/20 11:18:21;;;;;;;0.30;0.20;;;9.20;91.00;;;;;;5091094;28;20279;-78
2024/01/20 11:21:01;;;;;;;0.30;0.30;;;9.00;91.20;;;;;;5089735;28;20832;-78
2024/01/20 11:23:27;;;;;;;0.30;0.20;;;8.90;91.60;;;;;;5089748;28;20203;-84
2024/01/20 11:25:54;;;;;;;0.30;0.20;;;8.80;91.80;;;;;;5089534;28;20181;-78
2024/01/20 11:28:25;;;;;;;0.30;0.20;;;8.70;92.50;;;;;;5091312;28;20193;-78
2024/01/20 11:30:51;;;;;;;0.30;0.20;;;8.60;91.80;;;;;;5090398;28;20233;-77
2024/01/20 11:33:17;;;;;;;0.40;0.40;;;8.50;91.60;;;;;;5090543;28;20204;-84
2024/01/20 11:35:43;;;;;;;0.30;0.20;;;8.40;91.70;;;;;;5090452;28;20946;-84
2024/01/20 11:38:12;;;;;;;1.43;1.37;;;8.30;92.10;;;;;;5090469;28;20192;-78
2024/01/20 11:40:38;;;;;;;0.30;0.30;;;8.20;92.60;;;;;;5089276;28;20177;-77
2024/01/20 11:43:06;;;;;;;2.42;2.33;;;8.20;92.70;;;;;;5089567;28;20692;-84
2024/01/20 11:45:32;;;;;;;0.30;0.20;;;8.10;92.50;;;;;;5089210;28;20350;-84
2024/01/20 11:47:58;;;;;;;0.30;0.20;;;8.10;92.30;;;;;;5089378;28;20232;-84
2024/01/20 11:50:23;;;;;;;0.30;0.20;;;8.10;92.90;;;;;;5090716;28;20200;-78
2024/01/20 11:52:50;;;;;;;0.30;0.20;;;8.10;93.40;;;;;;5089502;28;20641;-78
2024/01/20 11:55:15;;;;;;;0.30;0.20;;;8.10;93.10;;;;;;5088361;28;20247;-78
2024/01/20 11:57:41;;;;;;;0.30;0.20;;;8.10;92.40;;;;;;5090779;28;20678;-78
2024/01/20 12:00:09;;;;;;;0.30;0.20;;;8.10;91.90;;;;;;5088619;28;20279;-78
2024/01/20 12:02:35;;;;;;;0.30;0.20;;;8.10;92.20;;;;;;5089429;28;20815;-77
2024/01/20 12:05:00;;;;;;;0.30;0.20;;;8.10;92.70;;;;;;5088130;28;20455;-80
2024/01/20 12:07:27;;;;;;;0.30;0.20;;;8.00;93.30;;;;;;5087922;28;20203;-84
2024/01/20 12:09:52;;;;;;;0.30;0.25;;;8.00;93.20;;;;;;5087501;28;20232;-83
2024/01/20 12:12:19;;;;;;;0.30;0.20;;;8.00;93.50;;;;;;5087094;28;20185;-79
2024/01/20 12:14:45;;;;;;;0.30;0.20;;;8.00;93.60;;;;;;5086668;28;20216;-78
2024/01/20 12:17:12;;;;;;;0.30;0.20;;;7.90;93.70;;;;;;5086895;28;20183;-84
2024/01/20 12:19:40;;;;;;;0.30;0.20;;;7.90;93.40;;;;;;5088045;28;20798;-78
2024/01/20 12:22:12;;;;;;;0.30;0.20;;;7.80;93.70;;;;;;5089999;28;20575;-84
2024/01/20 12:24:38;;;;;;;0.30;0.20;;;7.70;93.00;;;;;;5089013;28;20296;-78
2024/01/20 12:27:04;;;;;;;0.30;0.30;;;7.70;93.60;;;;;;5088353;28;20647;-78
2024/01/20 12:29:31;;;;;;;0.30;0.30;;;7.60;93.70;;;;;;5086222;28;20231;-78
2024/01/20 12:31:57;;;;;;;0.30;0.20;;;7.60;93.50;;;;;;5086718;28;20790;-84
2024/01/20 12:34:26;;;;;;;0.30;0.20;;;7.60;94.00;;;;;;5087740;28;20214;-77
2024/01/20 12:36:56;;;;;;;0.30;0.20;;;7.60;94.50;;;;;;5088104;28;20506;-84
2024/01/20 12:39:23;;;;;;;0.30;0.20;;;7.60;94.20;;;;;;5086198;28;20248;-78
2024/01/20 12:41:50;;;;;;;0.30;0.30;;;7.60;94.90;;;;;;5088379;28;20271;-85
2024/01/20 12:44:17;;;;;;;0.30;0.20;;;7.70;94.40;;;;;;5088508;28;20224;-78
2024/01/20 12:46:43;;;;;;;0.30;0.20;;;7.60;94.40;;;;;;5089753;28;20253;-78
2024/01/20 12:49:09;;;;;;;0.30;0.20;;;7.60;94.30;;;;;;5089657;28;20245;-78